createdAt,value
2019-04-09T00:00:31.115Z,34.20
2019-04-09T00:01:31.109Z,34.10
2019-04-09T00:02:31.761Z,37.30
2019-04-09T00:03:31.783Z,37.70
2019-04-09T00:04:31.097Z,34.90
2019-04-09T00:05:31.683Z,35.70
2019-04-09T00:06:31.659Z,36.00
2019-04-09T00:07:31.080Z,35.70
2019-04-09T00:08:31.672Z,34.00
2019-04-09T00:09:31.076Z,36.10
2019-04-09T00:10:31.069Z,37.70
2019-04-09T00:11:31.066Z,33.90
2019-04-09T00:12:31.558Z,34.30
2019-04-09T00:13:31.899Z,35.40
2019-04-09T00:14:31.852Z,35.40
2019-04-09T00:15:31.799Z,36.30
2019-04-09T00:16:31.526Z,36.00
2019-04-09T00:17:31.036Z,37.60
2019-04-09T00:18:31.575Z,36.80
2019-04-09T00:19:31.025Z,35.50
2019-04-09T00:20:31.013Z,38.60
2019-04-09T00:21:31.652Z,36.20
2019-04-09T00:22:31.008Z,38.30
2019-04-09T00:23:31.002Z,35.40
2019-04-09T00:24:30.993Z,34.40
2019-04-09T00:25:30.987Z,36.90
2019-04-09T00:26:42.462Z,35.60
2019-04-09T00:27:30.982Z,35.20
2019-04-09T00:28:31.267Z,36.50
2019-04-09T00:29:30.978Z,35.90
2019-04-09T00:30:31.268Z,37.40
2019-04-09T00:31:31.213Z,34.80
2019-04-09T00:32:30.957Z,35.50
2019-04-09T00:33:31.103Z,33.80
2019-04-09T00:34:31.531Z,37.20
2019-04-09T00:35:30.937Z,34.70
2019-04-09T00:36:31.568Z,35.40
2019-04-09T00:37:31.463Z,34.40
2019-04-09T00:38:31.388Z,35.20
2019-04-09T00:39:30.916Z,35.80
2019-04-09T00:40:30.916Z,37.60
2019-04-09T00:41:31.497Z,34.90
2019-04-09T00:42:31.483Z,34.70
2019-04-09T00:43:30.949Z,34.50
2019-04-09T00:44:30.895Z,36.00
2019-04-09T00:45:30.887Z,34.10
2019-04-09T00:46:31.689Z,32.90
2019-04-09T00:47:30.881Z,36.30
2019-04-09T00:48:31.756Z,37.10
2019-04-09T00:49:31.804Z,34.80
2019-04-09T00:50:30.963Z,34.20
2019-04-09T00:51:31.046Z,34.90
2019-04-09T00:52:30.854Z,33.70
2019-04-09T00:53:30.850Z,35.00
2019-04-09T00:54:31.588Z,34.30
2019-04-09T00:55:30.943Z,33.10
2019-04-09T00:56:31.707Z,36.50
2019-04-09T00:57:31.184Z,34.40
2019-04-09T00:58:30.823Z,35.50
2019-04-09T00:59:30.820Z,34.00
2019-04-09T01:00:30.809Z,33.70
2019-04-09T01:01:30.802Z,34.40
2019-04-09T01:02:30.803Z,34.10
2019-04-09T01:03:30.791Z,34.50
2019-04-09T01:04:30.792Z,34.30
2019-04-09T01:05:30.784Z,37.60
2019-04-09T01:06:31.420Z,35.50
2019-04-09T01:07:30.772Z,35.00
2019-04-09T01:08:31.606Z,33.50
2019-04-09T01:09:30.757Z,33.50
2019-04-09T01:10:30.756Z,33.70
2019-04-09T01:11:31.571Z,34.30
2019-04-09T01:12:30.741Z,35.80
2019-04-09T01:13:30.824Z,34.90
2019-04-09T01:14:31.559Z,32.70
2019-04-09T01:15:30.965Z,34.10
2019-04-09T01:16:31.788Z,33.60
2019-04-09T01:17:31.698Z,33.50
2019-04-09T01:18:30.713Z,32.90
2019-04-09T01:19:31.666Z,34.40
2019-04-09T01:20:31.734Z,35.10
2019-04-09T01:21:31.522Z,32.20
2019-04-09T01:22:30.865Z,33.90
2019-04-09T01:23:30.738Z,33.40
2019-04-09T01:24:35.370Z,33.20
2019-04-09T01:25:30.885Z,33.10
2019-04-09T01:26:30.818Z,33.60
2019-04-09T01:27:30.896Z,33.20
2019-04-09T01:28:30.875Z,32.90
2019-04-09T01:29:30.648Z,33.00
2019-04-09T01:30:30.644Z,34.40
2019-04-09T01:31:30.639Z,32.50
2019-04-09T01:32:31.273Z,33.70
2019-04-09T01:33:31.023Z,35.30
2019-04-09T01:34:30.617Z,34.10
2019-04-09T01:35:31.156Z,32.90
2019-04-09T01:36:31.079Z,33.80
2019-04-09T01:37:30.972Z,33.40
2019-04-09T01:38:30.755Z,32.40
2019-04-09T01:39:30.591Z,33.20
2019-04-09T01:40:30.582Z,34.60
2019-04-09T01:41:31.146Z,33.70
2019-04-09T01:42:31.184Z,33.80
2019-04-09T01:43:30.567Z,37.80
2019-04-09T01:44:30.558Z,35.20
2019-04-09T01:45:30.551Z,34.00
2019-04-09T01:46:30.932Z,34.40
2019-04-09T01:47:30.826Z,34.60
2019-04-09T01:48:30.542Z,35.80
2019-04-09T01:49:30.534Z,35.90
2019-04-09T01:50:31.051Z,35.30
2019-04-09T01:51:31.091Z,34.90
2019-04-09T01:52:30.512Z,35.10
2019-04-09T01:53:30.505Z,35.70
2019-04-09T01:54:30.502Z,33.80
2019-04-09T01:55:30.495Z,34.70
2019-04-09T01:56:31.120Z,35.70
2019-04-09T01:57:33.278Z,34.60
2019-04-09T01:58:31.032Z,34.60
2019-04-09T01:59:30.895Z,34.10
2019-04-09T02:00:30.470Z,36.30
2019-04-09T02:01:30.463Z,34.50
2019-04-09T02:02:31.237Z,35.50
2019-04-09T02:03:31.351Z,34.50
2019-04-09T02:04:30.550Z,34.90
2019-04-09T02:05:30.433Z,36.80
2019-04-09T02:06:30.426Z,37.20
2019-04-09T02:07:30.608Z,36.10
2019-04-09T02:08:30.433Z,34.80
2019-04-09T02:09:30.410Z,35.10
2019-04-09T02:10:31.315Z,36.40
2019-04-09T02:11:30.401Z,39.10
2019-04-09T02:12:30.840Z,36.40
2019-04-09T02:13:30.384Z,35.60
2019-04-09T02:14:30.383Z,37.70
2019-04-09T02:15:30.377Z,36.80
2019-04-09T02:16:30.367Z,36.40
2019-04-09T02:17:30.580Z,35.80
2019-04-09T02:18:30.352Z,36.40
2019-04-09T02:19:30.345Z,36.20
2019-04-09T02:20:30.885Z,37.20
2019-04-09T02:21:30.804Z,37.50
2019-04-09T02:22:30.768Z,36.30
2019-04-09T02:23:30.326Z,35.50
2019-04-09T02:24:30.730Z,37.70
2019-04-09T02:25:30.780Z,37.40
2019-04-09T02:26:30.746Z,37.20
2019-04-09T02:27:40.071Z,36.30
2019-04-09T02:28:30.453Z,37.00
2019-04-09T02:29:31.152Z,36.60
2019-04-09T02:30:31.001Z,37.30
2019-04-09T02:31:30.798Z,38.00
2019-04-09T02:32:32.127Z,39.10
2019-04-09T02:33:31.635Z,39.30
2019-04-09T02:34:31.735Z,39.20
2019-04-09T02:35:30.328Z,39.70
2019-04-09T02:36:31.574Z,37.30
2019-04-09T02:37:30.470Z,37.10
2019-04-09T02:38:30.223Z,38.50
2019-04-09T02:39:30.676Z,36.60
2019-04-09T02:40:30.225Z,39.50
2019-04-09T02:41:30.206Z,39.60
2019-04-09T02:42:30.837Z,38.90
2019-04-09T02:43:30.796Z,37.80
2019-04-09T02:44:30.950Z,39.10
2019-04-09T02:45:30.974Z,38.20
2019-04-09T02:46:30.793Z,38.80
2019-04-09T02:47:30.168Z,39.10
2019-04-09T02:48:30.159Z,39.30
2019-04-09T02:49:30.750Z,37.70
2019-04-09T02:50:30.677Z,37.70
2019-04-09T02:51:30.137Z,39.60
2019-04-09T02:52:30.135Z,38.40
2019-04-09T02:53:30.128Z,37.10
2019-04-09T02:54:30.123Z,38.60
2019-04-09T02:55:31.125Z,39.90
2019-04-09T02:56:30.382Z,39.00
2019-04-09T02:57:30.399Z,38.80
2019-04-09T02:58:31.055Z,39.80
2019-04-09T02:59:30.281Z,38.50
2019-04-09T03:00:30.168Z,39.40
2019-04-09T03:01:30.073Z,38.00
2019-04-09T03:02:30.169Z,39.00
2019-04-09T03:03:31.113Z,40.40
2019-04-09T03:04:31.179Z,39.40
2019-04-09T03:05:30.859Z,39.70
2019-04-09T03:06:30.180Z,39.80
2019-04-09T03:07:30.034Z,41.20
2019-04-09T03:08:30.864Z,41.10
2019-04-09T03:09:30.900Z,40.30
2019-04-09T03:10:30.012Z,43.10
2019-04-09T03:11:30.003Z,38.90
2019-04-09T03:12:29.999Z,38.90
2019-04-09T03:13:29.993Z,39.30
2019-04-09T03:14:30.562Z,39.70
2019-04-09T03:15:29.977Z,37.30
2019-04-09T03:16:29.966Z,40.80
2019-04-09T03:17:29.957Z,40.00
2019-04-09T03:18:29.956Z,38.20
2019-04-09T03:19:29.949Z,39.20
2019-04-09T03:20:29.938Z,38.70
2019-04-09T03:21:30.161Z,38.70
2019-04-09T03:22:29.925Z,39.00
2019-04-09T03:23:29.919Z,40.20
2019-04-09T03:24:30.489Z,39.80
2019-04-09T03:25:30.416Z,39.60
2019-04-09T03:26:30.866Z,38.70
2019-04-09T03:27:29.898Z,40.70
2019-04-09T03:28:30.693Z,40.40
2019-04-09T03:29:30.188Z,38.30
2019-04-09T03:30:30.693Z,43.70
2019-04-09T03:31:31.916Z,39.70
2019-04-09T03:32:31.299Z,39.80
2019-04-09T03:33:31.713Z,39.00
2019-04-09T03:34:30.377Z,41.20
2019-04-09T03:35:29.837Z,40.90
2019-04-09T03:36:29.831Z,40.60
2019-04-09T03:37:29.825Z,37.90
2019-04-09T03:38:30.584Z,39.60
2019-04-09T03:39:29.812Z,44.50
2019-04-09T03:40:29.803Z,41.30
2019-04-09T03:41:30.577Z,43.00
2019-04-09T03:42:30.572Z,39.70
2019-04-09T03:43:29.781Z,38.40
2019-04-09T03:44:29.782Z,40.40
2019-04-09T03:45:29.770Z,38.80
2019-04-09T03:46:29.970Z,40.40
2019-04-09T03:47:30.042Z,40.70
2019-04-09T03:48:29.743Z,39.00
2019-04-09T03:49:30.023Z,38.30
2019-04-09T03:50:29.863Z,41.00
2019-04-09T03:51:29.728Z,40.40
2019-04-09T03:52:29.718Z,38.30
2019-04-09T03:53:30.635Z,38.10
2019-04-09T03:54:30.760Z,39.20
2019-04-09T03:55:29.705Z,38.50
2019-04-09T03:56:30.185Z,41.10
2019-04-09T03:57:30.256Z,41.50
2019-04-09T03:58:29.685Z,38.60
2019-04-09T03:59:29.669Z,39.40
2019-04-09T04:00:30.502Z,40.80
2019-04-09T04:01:30.624Z,44.00
2019-04-09T04:02:30.486Z,38.90
2019-04-09T04:03:29.642Z,40.80
2019-04-09T04:04:29.887Z,39.20
2019-04-09T04:05:29.974Z,38.50
2019-04-09T04:06:30.083Z,38.80
2019-04-09T04:07:29.614Z,39.30
2019-04-09T04:08:29.606Z,39.90
2019-04-09T04:09:29.597Z,38.90
2019-04-09T04:10:29.589Z,38.10
2019-04-09T04:11:29.739Z,39.40
2019-04-09T04:12:29.570Z,39.30
2019-04-09T04:13:29.564Z,39.90
2019-04-09T04:14:29.554Z,39.80
2019-04-09T04:15:30.366Z,40.00
2019-04-09T04:16:30.425Z,39.10
2019-04-09T04:17:29.849Z,39.00
2019-04-09T04:18:29.845Z,38.80
2019-04-09T04:19:29.524Z,37.90
2019-04-09T04:20:29.513Z,38.30
2019-04-09T04:21:29.873Z,39.40
2019-04-09T04:22:29.499Z,38.50
2019-04-09T04:23:29.493Z,37.60
2019-04-09T04:24:30.359Z,37.80
2019-04-09T04:25:29.474Z,37.70
2019-04-09T04:26:29.463Z,38.70
2019-04-09T04:27:29.761Z,39.60
2019-04-09T04:28:35.050Z,40.60
2019-04-09T04:29:29.445Z,39.30
2019-04-09T04:30:30.106Z,37.20
2019-04-09T04:31:30.143Z,39.50
2019-04-09T04:32:29.441Z,38.20
2019-04-09T04:33:29.413Z,40.50
2019-04-09T04:34:29.406Z,37.30
2019-04-09T04:35:29.408Z,38.50
2019-04-09T04:36:29.395Z,37.70
2019-04-09T04:37:29.391Z,38.70
2019-04-09T04:38:29.373Z,38.90
2019-04-09T04:39:29.366Z,40.10
2019-04-09T04:40:29.366Z,38.80
2019-04-09T04:41:30.178Z,38.40
2019-04-09T04:42:29.709Z,37.50
2019-04-09T04:43:29.338Z,38.80
2019-04-09T04:44:29.328Z,38.70
2019-04-09T04:45:29.317Z,38.10
2019-04-09T04:46:29.327Z,37.70
2019-04-09T04:47:30.131Z,37.80
2019-04-09T04:48:29.322Z,38.80
2019-04-09T04:49:29.310Z,37.90
2019-04-09T04:50:29.287Z,38.60
2019-04-09T04:51:29.280Z,38.70
2019-04-09T04:52:30.004Z,38.00
2019-04-09T04:53:29.259Z,38.60
2019-04-09T04:54:30.045Z,37.50
2019-04-09T04:55:29.247Z,38.00
2019-04-09T04:56:29.947Z,39.20
2019-04-09T04:57:29.440Z,37.40
2019-04-09T04:58:38.318Z,37.90
2019-04-09T04:59:29.212Z,38.60
2019-04-09T05:00:29.208Z,38.60
2019-04-09T05:01:29.202Z,36.90
2019-04-09T05:02:29.231Z,38.40
2019-04-09T05:03:29.184Z,37.10
2019-04-09T05:04:29.546Z,37.20
2019-04-09T05:05:29.170Z,37.30
2019-04-09T05:06:29.686Z,40.30
2019-04-09T05:07:36.409Z,36.50
2019-04-09T05:08:29.855Z,39.90
2019-04-09T05:09:29.140Z,39.30
2019-04-09T05:10:29.951Z,38.10
2019-04-09T05:11:29.123Z,38.60
2019-04-09T05:12:29.922Z,36.00
2019-04-09T05:13:29.109Z,39.80
2019-04-09T05:14:29.728Z,38.70
2019-04-09T05:15:29.093Z,37.60
2019-04-09T05:16:29.079Z,36.30
2019-04-09T05:17:29.076Z,36.50
2019-04-09T05:18:29.063Z,38.60
2019-04-09T05:19:29.056Z,38.80
2019-04-09T05:20:29.179Z,36.80
2019-04-09T05:21:29.047Z,37.90
2019-04-09T05:22:30.847Z,37.00
2019-04-09T05:23:29.715Z,38.20
2019-04-09T05:24:29.022Z,42.00
2019-04-09T05:25:29.420Z,36.90
2019-04-09T05:26:29.010Z,38.30
2019-04-09T05:27:29.005Z,39.90
2019-04-09T05:28:29.012Z,35.70
2019-04-09T05:29:29.654Z,35.50
2019-04-09T05:30:29.065Z,37.60
2019-04-09T05:31:28.967Z,36.50
2019-04-09T05:32:29.799Z,38.40
2019-04-09T05:33:28.955Z,39.50
2019-04-09T05:34:29.723Z,40.20
2019-04-09T05:35:29.346Z,36.40
2019-04-09T05:36:28.936Z,37.60
2019-04-09T05:37:28.988Z,36.40
2019-04-09T05:38:29.264Z,36.90
2019-04-09T05:39:28.912Z,37.20
2019-04-09T05:40:28.909Z,36.10
2019-04-09T05:41:29.837Z,35.50
2019-04-09T05:42:28.890Z,34.80
2019-04-09T05:43:28.880Z,35.20
2019-04-09T05:44:29.431Z,39.20
2019-04-09T05:45:29.818Z,36.60
2019-04-09T05:46:29.851Z,38.30
2019-04-09T05:47:28.857Z,36.20
2019-04-09T05:48:29.655Z,36.10
2019-04-09T05:49:29.745Z,35.20
2019-04-09T05:50:29.854Z,35.40
2019-04-09T05:51:28.823Z,34.10
2019-04-09T05:52:29.110Z,35.70
2019-04-09T05:53:28.809Z,40.60
2019-04-09T05:54:28.806Z,35.80
2019-04-09T05:55:28.912Z,36.50
2019-04-09T05:56:29.784Z,35.20
2019-04-09T05:57:28.782Z,36.80
2019-04-09T05:58:29.678Z,36.40
2019-04-09T05:59:29.028Z,38.60
2019-04-09T06:00:28.770Z,36.50
2019-04-09T06:01:29.619Z,37.00
2019-04-09T06:02:29.660Z,35.60
2019-04-09T06:03:28.851Z,35.60
2019-04-09T06:04:28.755Z,37.30
2019-04-09T06:05:28.956Z,37.20
2019-04-09T06:06:29.498Z,37.60
2019-04-09T06:07:29.150Z,36.20
2019-04-09T06:08:29.631Z,37.60
2019-04-09T06:09:29.078Z,37.80
2019-04-09T06:10:28.687Z,37.00
2019-04-09T06:11:28.697Z,37.10
2019-04-09T06:12:28.958Z,37.30
2019-04-09T06:13:29.310Z,39.10
2019-04-09T06:14:28.662Z,37.70
2019-04-09T06:15:28.858Z,37.30
2019-04-09T06:16:29.440Z,37.50
2019-04-09T06:17:29.536Z,36.80
2019-04-09T06:18:28.642Z,36.10
2019-04-09T06:19:28.633Z,37.10
2019-04-09T06:20:28.622Z,38.10
2019-04-09T06:21:32.059Z,37.70
2019-04-09T06:22:29.543Z,38.30
2019-04-09T06:23:28.604Z,36.70
2019-04-09T06:24:29.284Z,39.40
2019-04-09T06:25:29.838Z,37.20
2019-04-09T06:26:28.611Z,36.80
2019-04-09T06:27:28.574Z,39.90
2019-04-09T06:28:28.565Z,41.20
2019-04-09T06:29:28.572Z,37.30
2019-04-09T06:30:29.386Z,38.20
2019-04-09T06:31:28.645Z,38.00
2019-04-09T06:32:28.892Z,38.00
2019-04-09T06:33:28.530Z,38.40
2019-04-09T06:34:28.529Z,38.60
2019-04-09T06:35:28.517Z,38.70
2019-04-09T06:36:28.516Z,39.50
2019-04-09T06:37:28.507Z,39.00
2019-04-09T06:38:29.392Z,40.90
2019-04-09T06:39:28.494Z,39.10
2019-04-09T06:40:28.571Z,38.70
2019-04-09T06:41:28.480Z,40.60
2019-04-09T06:42:28.466Z,43.40
2019-04-09T06:43:28.461Z,39.20
2019-04-09T06:44:28.659Z,37.10
2019-04-09T06:45:28.451Z,39.40
2019-04-09T06:46:28.436Z,40.30
2019-04-09T06:47:28.668Z,38.70
2019-04-09T06:48:29.222Z,39.30
2019-04-09T06:49:28.419Z,39.50
2019-04-09T06:50:29.286Z,41.60
2019-04-09T06:51:34.389Z,38.60
2019-04-09T06:52:28.516Z,42.20
2019-04-09T06:53:28.959Z,39.40
2019-04-09T06:54:28.449Z,38.80
2019-04-09T06:55:29.094Z,39.40
2019-04-09T06:56:28.490Z,38.20
2019-04-09T06:57:28.366Z,39.80
2019-04-09T06:58:28.361Z,40.20
2019-04-09T06:59:31.790Z,40.10
2019-04-09T07:00:28.537Z,40.20
2019-04-09T07:01:28.821Z,41.60
2019-04-09T07:02:28.329Z,42.70
2019-04-09T07:03:28.322Z,40.90
2019-04-09T07:04:28.315Z,40.00
2019-04-09T07:05:28.305Z,43.40
2019-04-09T07:06:28.480Z,41.20
2019-04-09T07:07:28.302Z,40.50
2019-04-09T07:08:29.011Z,42.00
2019-04-09T07:09:29.286Z,41.30
2019-04-09T07:10:28.274Z,41.90
2019-04-09T07:11:28.691Z,40.10
2019-04-09T07:12:29.174Z,40.60
2019-04-09T07:13:28.248Z,42.30
2019-04-09T07:14:28.642Z,41.40
2019-04-09T07:15:29.075Z,41.00
2019-04-09T07:16:28.234Z,42.60
2019-04-09T07:17:31.056Z,40.30
2019-04-09T07:18:29.255Z,41.60
2019-04-09T07:19:29.225Z,41.50
2019-04-09T07:20:28.205Z,40.10
2019-04-09T07:21:28.617Z,41.80
2019-04-09T07:22:28.900Z,43.30
2019-04-09T07:23:28.181Z,41.80
2019-04-09T07:24:28.169Z,40.40
2019-04-09T07:25:28.168Z,42.90
2019-04-09T07:26:28.154Z,42.50
2019-04-09T07:27:28.630Z,43.50
2019-04-09T07:28:28.148Z,42.40
2019-04-09T07:29:43.720Z,43.00
2019-04-09T07:30:28.284Z,42.70
2019-04-09T07:31:29.618Z,40.60
2019-04-09T07:32:30.382Z,42.70
2019-04-09T07:33:28.711Z,42.20
2019-04-09T07:34:28.866Z,44.40
2019-04-09T07:35:31.817Z,45.60
2019-04-09T07:36:28.804Z,42.50
2019-04-09T07:37:28.123Z,43.30
2019-04-09T07:38:29.136Z,42.90
2019-04-09T07:39:28.673Z,42.50
2019-04-09T07:40:31.617Z,42.80
2019-04-09T07:41:28.049Z,45.20
2019-04-09T07:42:28.042Z,42.40
2019-04-09T07:43:28.035Z,41.00
2019-04-09T07:44:30.305Z,41.50
2019-04-09T07:45:28.017Z,41.60
2019-04-09T07:46:28.136Z,42.10
2019-04-09T07:47:31.415Z,44.30
2019-04-09T07:48:29.995Z,42.40
2019-04-09T07:49:31.226Z,41.70
2019-04-09T07:50:28.217Z,42.00
2019-04-09T07:51:27.984Z,43.60
2019-04-09T07:52:28.306Z,43.20
2019-04-09T07:53:30.176Z,43.50
2019-04-09T07:54:27.956Z,42.90
2019-04-09T07:55:28.741Z,41.70
2019-04-09T07:56:29.763Z,41.00
2019-04-09T07:57:28.247Z,43.40
2019-04-09T07:58:28.645Z,42.60
2019-04-09T07:59:28.730Z,40.70
2019-04-09T08:00:28.885Z,41.40
2019-04-09T08:01:27.905Z,44.30
2019-04-09T08:02:28.488Z,43.60
2019-04-09T08:03:30.660Z,42.40
2019-04-09T08:04:28.169Z,42.20
2019-04-09T08:05:27.928Z,43.00
2019-04-09T08:06:28.965Z,41.60
2019-04-09T08:07:28.537Z,46.70
2019-04-09T08:08:32.149Z,43.60
2019-04-09T08:09:27.971Z,41.60
2019-04-09T08:10:28.349Z,42.20
2019-04-09T08:11:27.879Z,42.40
2019-04-09T08:12:27.831Z,42.20
2019-04-09T08:13:30.605Z,40.70
2019-04-09T08:14:28.010Z,41.30
2019-04-09T08:15:28.999Z,40.90
2019-04-09T08:16:28.725Z,41.30
2019-04-09T08:17:27.794Z,43.30
2019-04-09T08:18:27.784Z,41.10
2019-04-09T08:19:28.147Z,41.20
2019-04-09T08:20:31.848Z,40.40
2019-04-09T08:21:29.173Z,41.10
2019-04-09T08:22:28.705Z,40.00
2019-04-09T08:23:27.749Z,41.30
2019-04-09T08:24:28.232Z,40.70
2019-04-09T08:25:29.496Z,42.30
2019-04-09T08:26:27.739Z,40.30
2019-04-09T08:27:27.823Z,42.50
2019-04-09T08:28:27.719Z,41.80
2019-04-09T08:29:27.710Z,40.70
2019-04-09T08:30:33.943Z,40.90
2019-04-09T08:31:28.685Z,39.90
2019-04-09T08:32:27.698Z,39.80
2019-04-09T08:33:28.501Z,41.30
2019-04-09T08:34:31.263Z,40.70
2019-04-09T08:35:28.361Z,39.70
2019-04-09T08:36:28.352Z,39.20
2019-04-09T08:37:28.310Z,39.80
2019-04-09T08:38:29.829Z,39.60
2019-04-09T08:39:27.648Z,38.80
2019-04-09T08:40:27.636Z,38.10
2019-04-09T08:41:28.660Z,38.90
2019-04-09T08:42:29.503Z,39.70
2019-04-09T08:43:28.720Z,37.10
2019-04-09T08:44:27.617Z,40.00
2019-04-09T08:45:28.397Z,40.50
2019-04-09T08:46:28.651Z,36.80
2019-04-09T08:47:29.268Z,38.70
2019-04-09T08:48:28.416Z,40.60
2019-04-09T08:49:28.453Z,39.40
2019-04-09T08:50:30.303Z,40.30
2019-04-09T08:51:27.565Z,37.00
2019-04-09T08:52:27.563Z,38.40
2019-04-09T08:53:27.845Z,36.70
2019-04-09T08:54:29.639Z,36.20
2019-04-09T08:55:31.214Z,41.80
2019-04-09T08:56:27.541Z,38.80
2019-04-09T08:57:27.533Z,36.00
2019-04-09T08:58:28.807Z,36.50
2019-04-09T08:59:30.775Z,35.00
2019-04-09T09:00:59.732Z,37.20
2019-04-09T09:01:48.829Z,36.40
2019-04-09T09:02:32.531Z,38.50
2019-04-09T09:03:29.522Z,36.60
2019-04-09T09:04:29.997Z,35.90
2019-04-09T09:05:30.846Z,37.10
2019-04-09T09:06:27.479Z,36.60
2019-04-09T09:07:29.216Z,34.90
2019-04-09T09:08:27.462Z,35.00
2019-04-09T09:09:30.492Z,34.60
2019-04-09T09:10:27.506Z,34.80
2019-04-09T09:11:30.992Z,37.90
2019-04-09T09:12:29.556Z,34.10
2019-04-09T09:13:27.731Z,36.20
2019-04-09T09:14:27.432Z,34.90
2019-04-09T09:15:27.423Z,32.90
2019-04-09T09:16:30.587Z,36.30
2019-04-09T09:17:27.502Z,33.30
2019-04-09T09:18:27.402Z,34.90
2019-04-09T09:19:31.786Z,34.70
2019-04-09T09:20:28.208Z,34.50
2019-04-09T09:21:34.123Z,33.60
2019-04-09T09:22:30.158Z,36.20
2019-04-09T09:23:27.945Z,34.60
2019-04-09T09:24:27.373Z,34.50
2019-04-09T09:25:30.869Z,34.40
2019-04-09T09:26:27.543Z,35.60
2019-04-09T09:27:27.367Z,34.90
2019-04-09T09:28:27.352Z,34.20
2019-04-09T09:29:27.346Z,33.10
2019-04-09T09:30:32.733Z,32.40
2019-04-09T09:31:30.915Z,33.60
2019-04-09T09:32:27.333Z,34.20
2019-04-09T09:33:32.887Z,32.80
2019-04-09T09:34:27.447Z,31.50
2019-04-09T09:35:28.811Z,32.60
2019-04-09T09:36:27.311Z,34.00
2019-04-09T09:37:28.052Z,31.70
2019-04-09T09:38:28.032Z,36.50
2019-04-09T09:39:32.101Z,30.70
2019-04-09T09:40:29.661Z,30.80
2019-04-09T09:41:28.242Z,30.90
2019-04-09T09:42:27.693Z,31.80
2019-04-09T09:43:27.810Z,31.00
2019-04-09T09:44:27.280Z,32.00
2019-04-09T09:45:29.698Z,29.60
2019-04-09T09:46:30.004Z,32.70
2019-04-09T09:47:27.264Z,33.40
2019-04-09T09:48:27.256Z,29.60
2019-04-09T09:49:30.899Z,29.80
2019-04-09T09:50:27.250Z,30.80
2019-04-09T09:51:30.048Z,29.80
2019-04-09T09:52:28.001Z,31.90
2019-04-09T09:53:29.766Z,29.20
2019-04-09T09:54:27.243Z,29.50
2019-04-09T09:55:27.242Z,27.30
2019-04-09T09:56:33.660Z,27.30
2019-04-09T09:57:27.995Z,29.80
2019-04-09T09:58:27.237Z,27.70
2019-04-09T09:59:31.941Z,28.20
2019-04-09T10:00:28.431Z,32.40
2019-04-09T10:01:33.123Z,28.70
2019-04-09T10:02:30.721Z,27.40
2019-04-09T10:03:27.224Z,29.90
2019-04-09T10:04:28.248Z,28.90
2019-04-09T10:05:30.783Z,29.80
2019-04-09T10:06:27.871Z,29.00
2019-04-09T10:07:37.923Z,27.30
2019-04-09T10:08:29.890Z,28.20
2019-04-09T10:09:29.238Z,29.70
2019-04-09T10:10:30.168Z,29.70
2019-04-09T10:11:30.393Z,28.20
2019-04-09T10:12:33.273Z,29.70
2019-04-09T10:13:27.519Z,28.80
2019-04-09T10:14:29.404Z,27.00
2019-04-09T10:15:27.496Z,27.40
2019-04-09T10:16:27.657Z,27.00
2019-04-09T10:17:31.605Z,28.00
2019-04-09T10:18:28.581Z,26.60
2019-04-09T10:19:30.046Z,26.00
2019-04-09T10:20:31.174Z,27.20
2019-04-09T10:21:27.217Z,27.00
2019-04-09T10:22:28.122Z,28.70
2019-04-09T10:23:31.025Z,25.20
2019-04-09T10:24:31.364Z,29.50
2019-04-09T10:25:31.179Z,25.40
2019-04-09T10:26:27.341Z,26.70
2019-04-09T10:27:27.344Z,26.10
2019-04-09T10:28:29.587Z,27.50
2019-04-09T10:29:31.074Z,25.80
2019-04-09T10:30:27.937Z,26.90
2019-04-09T10:31:36.800Z,29.50
2019-04-09T10:32:27.990Z,26.00
2019-04-09T10:33:27.236Z,26.30
2019-04-09T10:34:30.128Z,24.30
2019-04-09T10:35:30.894Z,25.80
2019-04-09T10:36:27.251Z,26.60
2019-04-09T10:37:27.252Z,24.80
2019-04-09T10:38:27.527Z,25.10
2019-04-09T10:39:34.009Z,31.40
2019-04-09T10:40:27.870Z,27.60
2019-04-09T10:41:36.105Z,26.10
2019-04-09T10:42:27.259Z,27.30
2019-04-09T10:43:28.347Z,27.40
2019-04-09T10:44:27.270Z,29.50
2019-04-09T10:45:28.539Z,26.60
2019-04-09T10:46:30.902Z,24.60
2019-04-09T10:47:27.275Z,25.20
2019-04-09T10:48:27.284Z,26.00
2019-04-09T10:49:28.531Z,25.50
2019-04-09T10:50:30.605Z,25.30
2019-04-09T10:51:27.863Z,25.40
2019-04-09T10:52:28.577Z,25.70
2019-04-09T10:53:31.613Z,24.70
2019-04-09T10:54:27.819Z,26.80
2019-04-09T10:55:27.302Z,29.30
2019-04-09T10:56:31.260Z,25.90
2019-04-09T10:57:27.312Z,27.10
2019-04-09T10:58:27.421Z,26.10
2019-04-09T10:59:29.749Z,26.80
2019-04-09T11:00:28.262Z,28.80
2019-04-09T11:01:35.490Z,24.90
2019-04-09T11:02:31.549Z,30.40
2019-04-09T11:03:28.394Z,25.80
2019-04-09T11:04:27.597Z,27.00
2019-04-09T11:05:28.398Z,25.50
2019-04-09T11:06:29.292Z,25.70
2019-04-09T11:07:31.628Z,27.80
2019-04-09T11:08:27.350Z,25.70
2019-04-09T11:09:28.463Z,25.60
2019-04-09T11:10:31.035Z,24.80
2019-04-09T11:11:27.362Z,27.30
2019-04-09T11:12:28.558Z,24.00
2019-04-09T11:13:30.995Z,26.50
2019-04-09T11:14:28.455Z,24.90
2019-04-09T11:15:28.305Z,25.70
2019-04-09T11:16:30.432Z,26.60
2019-04-09T11:17:29.741Z,26.40
2019-04-09T11:18:27.629Z,24.10
2019-04-09T11:19:29.437Z,23.70
2019-04-09T11:20:29.470Z,25.00
2019-04-09T11:21:27.405Z,26.60
2019-04-09T11:22:28.146Z,29.50
2019-04-09T11:23:27.415Z,27.30
2019-04-09T11:24:30.051Z,26.80
2019-04-09T11:25:27.511Z,23.80
2019-04-09T11:26:29.231Z,23.60
2019-04-09T11:27:28.561Z,23.60
2019-04-09T11:28:27.907Z,24.50
2019-04-09T11:29:27.601Z,23.80
2019-04-09T11:30:27.447Z,25.00
2019-04-09T11:31:28.407Z,24.80
2019-04-09T11:32:27.450Z,23.10
2019-04-09T11:33:27.455Z,25.30
2019-04-09T11:34:27.850Z,24.20
2019-04-09T11:35:28.212Z,24.00
2019-04-09T11:36:27.463Z,25.50
2019-04-09T11:37:28.282Z,24.90
2019-04-09T11:38:27.786Z,24.50
2019-04-09T11:39:28.128Z,26.40
2019-04-09T11:40:27.477Z,30.00
2019-04-09T11:41:28.587Z,25.60
2019-04-09T11:42:27.605Z,25.10
2019-04-09T11:43:27.837Z,25.30
2019-04-09T11:44:27.493Z,24.10
2019-04-09T11:45:27.482Z,24.60
2019-04-09T11:46:28.405Z,25.80
2019-04-09T11:47:27.513Z,26.50
2019-04-09T11:48:27.843Z,24.60
2019-04-09T11:49:27.499Z,26.30
2019-04-09T11:50:27.807Z,25.30
2019-04-09T11:51:27.916Z,24.80
2019-04-09T11:52:28.033Z,25.30
2019-04-09T11:53:28.142Z,23.10
2019-04-09T11:54:27.495Z,25.80
2019-04-09T11:55:27.497Z,24.40
2019-04-09T11:56:28.351Z,25.50
2019-04-09T11:57:27.490Z,27.90
2019-04-09T11:58:27.715Z,22.40
2019-04-09T11:59:30.824Z,25.20
2019-04-09T12:00:27.922Z,23.00
2019-04-09T12:01:28.220Z,24.20
2019-04-09T12:02:28.392Z,22.90
2019-04-09T12:03:27.498Z,24.40
2019-04-09T12:04:27.664Z,23.50
2019-04-09T12:05:27.492Z,27.30
2019-04-09T12:06:27.496Z,22.80
2019-04-09T12:07:28.231Z,24.70
2019-04-09T12:08:27.601Z,25.30
2019-04-09T12:09:27.816Z,25.90
2019-04-09T12:10:28.025Z,24.80
2019-04-09T12:11:27.489Z,25.40
2019-04-09T12:12:27.526Z,24.60
2019-04-09T12:13:28.555Z,24.30
2019-04-09T12:14:27.703Z,24.50
2019-04-09T12:15:27.486Z,24.90
2019-04-09T12:16:27.481Z,24.20
2019-04-09T12:17:28.195Z,25.70
2019-04-09T12:18:28.068Z,22.50
2019-04-09T12:19:28.370Z,22.30
2019-04-09T12:20:28.427Z,23.80
2019-04-09T12:21:27.483Z,23.60
2019-04-09T12:22:27.958Z,24.50
2019-04-09T12:23:27.475Z,24.80
2019-04-09T12:24:27.479Z,22.50
2019-04-09T12:25:28.142Z,21.40
2019-04-09T12:26:28.550Z,25.40
2019-04-09T12:27:28.519Z,23.70
2019-04-09T12:28:27.466Z,22.10
2019-04-09T12:29:27.786Z,24.20
2019-04-09T12:30:28.286Z,24.60
2019-04-09T12:31:28.141Z,23.90
2019-04-09T12:32:28.765Z,22.30
2019-04-09T12:33:27.467Z,26.80
2019-04-09T12:34:28.429Z,22.90
2019-04-09T12:35:27.460Z,23.00
2019-04-09T12:36:27.453Z,24.40
2019-04-09T12:37:27.454Z,22.90
2019-04-09T12:38:27.455Z,21.30
2019-04-09T12:39:28.398Z,23.70
2019-04-09T12:40:27.448Z,25.20
2019-04-09T12:41:27.776Z,24.00
2019-04-09T12:42:27.448Z,26.80
2019-04-09T12:43:27.446Z,22.00
2019-04-09T12:44:27.659Z,22.90
2019-04-09T12:45:27.447Z,25.30
2019-04-09T12:46:27.445Z,23.70
2019-04-09T12:47:28.187Z,23.90
2019-04-09T12:48:28.286Z,24.10
2019-04-09T12:49:27.452Z,25.70
2019-04-09T12:50:27.438Z,23.70
2019-04-09T12:51:27.432Z,23.80
2019-04-09T12:52:28.066Z,25.30